Merritt Island, Florida
Current Conditions -  °F | °C
As of 4:58 PM on Friday 26 Dec 2014 (Local Time) from KCOF Reporting Station
Overcast Overcast  
Wind Chill: 21°   Ceiling: 2600
Heat Index: 21°   Visibility: 10mi
Dew Point: 17°   Wind: 5mph
Humidity: 81%   Direction: 30°NNE
Pressure: 30.19"   Gusts: NA
Location:  28.36°N, 80.68°W
Report Text: KCOF 262158Z AUTO 03004KT 10SM OVC026 21/17 A3019 RMK AO2 SLP228 T02070174 $
Loading
Personal Weather Stations






























Interactive Weather Map New forecast layout! Learn more

10-Day Weather Forecast

Advertisements
Track Severe Weather on mobile